Manicore, Brazil
Current Conditions -  °F | °C
As of 2:00 PM on Monday 20 Oct 2014 (Local Time) from SBMY Reporting Station
Few Clouds Few Clouds  
Wind Chill: 93°   Ceiling: Unl
Heat Index: 103°   Visibility: 6mi
Dew Point: 73°   Wind: 5mph
Humidity: 52%   Direction: 270°W
Pressure: 29.83"   Gusts: NA
Location:  5.82°S, 61.28°W
Report Text: SBMY 201800Z 27004KT 9999 FEW022 FEW024TCU 34/23 Q1010
Loading
Personal Weather Stations






























Interactive Weather Map
Tropical Storm Tracking
New forecast layout! Learn more

10-Day Weather Forecast

Advertisements
Track Severe Weather on mobile